Back to Top

Language: 

My Weather Underground Personal Weather Station Historical Data with Graphs...

Delerius Weather Station Historical Data
 
Daily Summary for June 21, 2018 Units:  Metric    English   Both
« Previous Day
Next Day »
Daily Weekly Monthly Yearly Custom
  Current: High: Low: Average:
Temperature: 17.2 °C 19.8 °C 9.2 °C 14.3 °C
Dew Point: 7.8 °C 8 °C 4.4 °C 6.1 °C
Humidity: 54 % 81 % 38 % 60 %
Wind Speed: 17.7 km/h 24.1 km/h 1.6 km/h 15.3 km/h
Wind Gust: 33.8 km/h 37 km/h - -
Wind:West - - WNW
Pressure: 1027.7 hPa 1027.7 hPa 1019.9 hPa -
Precipitation: 0 mm      
Historical Graphs
 
 
Tabular Data for June 21, 2018
Time Temperature Dew Point Pressure Wind Wind Speed Wind Gust Humidity Rainfall Rate (Hourly) solar Conditions
00:04 11.3 °C 6.2 °C 1019.9 hPa WNW 4.8 km/h 11.3 km/h 71 % 0 mm 0.00 W/m2
00:09 11.2 °C 6.1 °C 1019.9 hPa WNW 3.2 km/h 9.7 km/h 71 % 0 mm 0.00 W/m2
00:14 11.2 °C 6.3 °C 1019.9 hPa West 1.6 km/h 8 km/h 72 % 0 mm 0.00 W/m2
00:19 11.1 °C 6.2 °C 1019.9 hPa WNW 1.6 km/h 6.4 km/h 72 % 0 mm 0.00 W/m2
00:24 11 °C 6.3 °C 1019.9 hPa West 8 km/h 20.9 km/h 73 % 0 mm 0.00 W/m2
00:29 10.9 °C 6.2 °C 1019.9 hPa WNW 6.4 km/h 11.3 km/h 73 % 0 mm 0.00 W/m2
00:34 10.9 °C 6.4 °C 1019.9 hPa WNW 12.9 km/h 20.9 km/h 74 % 0 mm 0.00 W/m2
00:39 10.8 °C 6.3 °C 1019.9 hPa WNW 9.7 km/h 17.7 km/h 74 % 0 mm 0.00 W/m2
00:44 10.8 °C 6.6 °C 1019.9 hPa West 8 km/h 11.3 km/h 75 % 0 mm 0.00 W/m2
00:49 10.8 °C 6.6 °C 1019.9 hPa WNW 8 km/h 14.5 km/h 75 % 0 mm 0.00 W/m2
00:54 10.8 °C 6.6 °C 1019.9 hPa WNW 12.9 km/h 20.9 km/h 75 % 0 mm 0.00 W/m2
00:59 10.8 °C 6.7 °C 1019.9 hPa WNW 16.1 km/h 22.5 km/h 76 % 0 mm 0.00 W/m2
01:04 10.9 °C 6.8 °C 1019.9 hPa WNW 17.7 km/h 25.7 km/h 76 % 0 mm 0.00 W/m2
01:09 11 °C 6.9 °C 1019.9 hPa WNW 19.3 km/h 30.6 km/h 76 % 0 mm 0.00 W/m2
01:14 11.1 °C 7 °C 1019.9 hPa WNW 14.5 km/h 25.7 km/h 76 % 0 mm 0.00 W/m2
01:19 11.2 °C 6.9 °C 1019.9 hPa WNW 12.9 km/h 17.7 km/h 75 % 0 mm 0.00 W/m2
01:24 11.1 °C 7 °C 1019.9 hPa WNW 17.7 km/h 25.7 km/h 76 % 0 mm 0.00 W/m2
01:29 11.1 °C 7 °C 1020.2 hPa WNW 14.5 km/h 22.5 km/h 76 % 0 mm 0.00 W/m2
01:34 11.1 °C 7 °C 1020.2 hPa WNW 16.1 km/h 30.6 km/h 76 % 0 mm 0.00 W/m2
01:39 11.1 °C 7 °C 1019.9 hPa WNW 14.5 km/h 22.5 km/h 76 % 0 mm 0.00 W/m2
01:44 11.1 °C 7 °C 1020.2 hPa WNW 17.7 km/h 25.7 km/h 76 % 0 mm 0.00 W/m2
01:49 11.1 °C 7 °C 1020.2 hPa WNW 12.9 km/h 22.5 km/h 76 % 0 mm 0.00 W/m2
01:54 11 °C 6.9 °C 1019.9 hPa West 16.1 km/h 22.5 km/h 76 % 0 mm 0.00 W/m2
01:59 10.9 °C 7 °C 1020.2 hPa WNW 16.1 km/h 29 km/h 77 % 0 mm 0.00 W/m2
02:04 10.9 °C 7 °C 1020.2 hPa WNW 9.7 km/h 16.1 km/h 77 % 0 mm 0.00 W/m2
02:09 10.8 °C 6.9 °C 1020.2 hPa WNW 9.7 km/h 14.5 km/h 77 % 0 mm 0.00 W/m2
02:14 10.7 °C 7 °C 1020.2 hPa WNW 9.7 km/h 17.7 km/h 78 % 0 mm 0.00 W/m2
02:19 10.7 °C 7 °C 1020.2 hPa WNW 9.7 km/h 14.5 km/h 78 % 0 mm 0.00 W/m2
02:24 10.8 °C 7.3 °C 1020.5 hPa WNW 14.5 km/h 24.1 km/h 79 % 0 mm 0.00 W/m2
02:29 10.8 °C 7.1 °C 1020.5 hPa NW 19.3 km/h 35.4 km/h 78 % 0 mm 0.00 W/m2
02:34 10.8 °C 6.9 °C 1020.5 hPa WNW 14.5 km/h 25.7 km/h 77 % 0 mm 0.00 W/m2
02:39 10.8 °C 6.9 °C 1020.5 hPa WNW 17.7 km/h 24.1 km/h 77 % 0 mm 0.00 W/m2
02:44 10.8 °C 6.9 °C 1020.5 hPa WNW 16.1 km/h 33.8 km/h 77 % 0 mm 0.00 W/m2
02:49 10.8 °C 6.9 °C 1020.5 hPa WNW 12.9 km/h 19.3 km/h 77 % 0 mm 0.00 W/m2
02:54 10.6 °C 6.7 °C 1020.5 hPa WNW 14.5 km/h 29 km/h 77 % 0 mm 0.00 W/m2
02:59 10.5 °C 6.6 °C 1020.5 hPa WNW 12.9 km/h 17.7 km/h 77 % 0 mm 0.00 W/m2
03:04 10.3 °C 6.4 °C 1020.5 hPa WNW 14.5 km/h 22.5 km/h 77 % 0 mm 0.00 W/m2
03:09 10.2 °C 6.3 °C 1020.5 hPa WNW 16.1 km/h 25.7 km/h 77 % 0 mm 0.00 W/m2
03:14 10.1 °C 6.2 °C 1020.5 hPa WNW 17.7 km/h 24.1 km/h 77 % 0 mm 0.00 W/m2
03:19 9.9 °C 6.2 °C 1020.5 hPa WNW 14.5 km/h 29 km/h 78 % 0 mm 0.00 W/m2
03:24 9.9 °C 6.2 °C 1020.5 hPa WNW 9.7 km/h 14.5 km/h 78 % 0 mm 0.00 W/m2
03:30 9.8 °C 6.3 °C 1020.5 hPa WNW 16.1 km/h 20.9 km/h 79 % 0 mm 0.00 W/m2
03:34 9.7 °C 6.4 °C 1020.5 hPa WNW 16.1 km/h 24.1 km/h 80 % 0 mm 0.00 W/m2
03:39 9.7 °C 6.4 °C 1020.5 hPa WNW 11.3 km/h 20.9 km/h 80 % 0 mm 0.00 W/m2
03:44 9.6 °C 6.3 °C 1020.5 hPa WNW 11.3 km/h 17.7 km/h 80 % 0 mm 0.00 W/m2
03:49 9.5 °C 6.2 °C 1020.5 hPa WNW 12.9 km/h 19.3 km/h 80 % 0 mm 0.00 W/m2
03:54 9.4 °C 6.3 °C 1020.2 hPa WNW 14.5 km/h 24.1 km/h 81 % 0 mm 0.00 W/m2
03:59 9.4 °C 6.3 °C 1020.5 hPa WNW 14.5 km/h 25.7 km/h 81 % 0 mm 0.00 W/m2
04:04 9.5 °C 6.4 °C 1020.5 hPa WNW 14.5 km/h 30.6 km/h 81 % 0 mm 0.00 W/m2
04:09 9.5 °C 6.4 °C 1020.5 hPa WNW 11.3 km/h 22.5 km/h 81 % 0 mm 0.00 W/m2
04:14 9.4 °C 6.1 °C 1020.5 hPa WNW 11.3 km/h 22.5 km/h 80 % 0 mm 0.00 W/m2
04:19 9.4 °C 6.1 °C 1020.9 hPa WNW 8 km/h 12.9 km/h 80 % 0 mm 0.00 W/m2
04:24 9.4 °C 6.1 °C 1020.9 hPa WNW 12.9 km/h 24.1 km/h 80 % 0 mm 0.00 W/m2
04:29 9.4 °C 5.9 °C 1020.9 hPa NW 9.7 km/h 17.7 km/h 79 % 0 mm 0.00 W/m2
04:34 9.4 °C 5.9 °C 1020.9 hPa WNW 14.5 km/h 25.7 km/h 79 % 0 mm 0.00 W/m2
04:39 9.4 °C 5.9 °C 1020.9 hPa WNW 11.3 km/h 17.7 km/h 79 % 0 mm 5.00 W/m2
04:44 9.3 °C 5.8 °C 1020.9 hPa WNW 9.7 km/h 17.7 km/h 79 % 0 mm 7.00 W/m2
04:49 9.3 °C 6 °C 1021.2 hPa NW 8 km/h 11.3 km/h 80 % 0 mm 9.00 W/m2
04:54 9.2 °C 5.9 °C 1021.2 hPa NW 11.3 km/h 17.7 km/h 80 % 0 mm 11.00 W/m2
04:59 9.2 °C 5.9 °C 1021.2 hPa WNW 12.9 km/h 19.3 km/h 80 % 0 mm 16.00 W/m2
05:04 9.2 °C 5.9 °C 1021.2 hPa WNW 11.3 km/h 17.7 km/h 80 % 0 mm 18.00 W/m2
05:09 9.2 °C 5.9 °C 1020.9 hPa West 12.9 km/h 22.5 km/h 80 % 0 mm 16.00 W/m2
05:14 9.2 °C 5.9 °C 1021.2 hPa WNW 12.9 km/h 20.9 km/h 80 % 0 mm 16.00 W/m2
05:19 9.3 °C 6 °C 1021.2 hPa WNW 14.5 km/h 22.5 km/h 80 % 0 mm 18.00 W/m2
05:24 9.3 °C 6 °C 1021.2 hPa WNW 12.9 km/h 22.5 km/h 80 % 0 mm 23.00 W/m2
05:29 9.3 °C 6 °C 1021.6 hPa WNW 9.7 km/h 14.5 km/h 80 % 0 mm 23.00 W/m2
05:34 9.2 °C 6.1 °C 1021.6 hPa WNW 9.7 km/h 16.1 km/h 81 % 0 mm 21.00 W/m2
05:40 9.2 °C 6.1 °C 1021.6 hPa WNW 11.3 km/h 17.7 km/h 81 % 0 mm 23.00 W/m2
05:44 9.2 °C 6.1 °C 1021.6 hPa WNW 14.5 km/h 20.9 km/h 81 % 0 mm 23.00 W/m2
05:49 9.3 °C 6.2 °C 1021.6 hPa West 19.3 km/h 33.8 km/h 81 % 0 mm 25.00 W/m2
05:54 9.3 °C 6.2 °C 1021.6 hPa WNW 16.1 km/h 29 km/h 81 % 0 mm 26.00 W/m2
05:59 9.4 °C 6.3 °C 1021.6 hPa WNW 19.3 km/h 32.2 km/h 81 % 0 mm 44.00 W/m2
06:04 9.5 °C 6.4 °C 1021.6 hPa West 16.1 km/h 24.1 km/h 81 % 0 mm 123.00 W/m2
06:09 9.7 °C 6.4 °C 1021.6 hPa West 14.5 km/h 22.5 km/h 80 % 0 mm 88.00 W/m2
06:14 9.8 °C 6.5 °C 1021.6 hPa WNW 14.5 km/h 20.9 km/h 80 % 0 mm 37.00 W/m2
06:19 9.9 °C 6.4 °C 1021.9 hPa WNW 16.1 km/h 30.6 km/h 79 % 0 mm 42.00 W/m2
06:24 10 °C 6.3 °C 1021.9 hPa WNW 11.3 km/h 17.7 km/h 78 % 0 mm 47.00 W/m2
06:29 10.1 °C 6.4 °C 1021.9 hPa WNW 9.7 km/h 24.1 km/h 78 % 0 mm 37.00 W/m2
06:34 10.2 °C 6.3 °C 1021.9 hPa West 16.1 km/h 20.9 km/h 77 % 0 mm 39.00 W/m2
06:39 10.3 °C 6.3 °C 1022.2 hPa WNW 12.9 km/h 22.5 km/h 76 % 0 mm 42.00 W/m2
06:44 10.4 °C 6.3 °C 1022.2 hPa WNW 14.5 km/h 30.6 km/h 76 % 0 mm 58.00 W/m2
06:49 10.5 °C 6.3 °C 1022.6 hPa WNW 14.5 km/h 22.5 km/h 75 % 0 mm 63.00 W/m2
06:54 10.7 °C 6.4 °C 1022.6 hPa WNW 11.3 km/h 16.1 km/h 75 % 0 mm 76.00 W/m2
06:59 10.8 °C 6.3 °C 1022.6 hPa NW 12.9 km/h 17.7 km/h 74 % 0 mm 60.00 W/m2
07:04 10.9 °C 6.2 °C 1022.6 hPa WNW 16.1 km/h 30.6 km/h 73 % 0 mm 83.00 W/m2
07:09 11.1 °C 6.2 °C 1022.6 hPa WNW 22.5 km/h 32.2 km/h 72 % 0 mm 77.00 W/m2
07:14 11.1 °C 6.1 °C 1022.6 hPa WNW 19.3 km/h 35.4 km/h 71 % 0 mm 130.00 W/m2
07:19 11.2 °C 6.1 °C 1022.9 hPa WNW 22.5 km/h 37 km/h 71 % 0 mm 271.00 W/m2
07:24 11.3 °C 6 °C 1022.9 hPa NW 16.1 km/h 30.6 km/h 70 % 0 mm 338.00 W/m2
07:29 11.6 °C 6.1 °C 1022.9 hPa NW 17.7 km/h 29 km/h 69 % 0 mm 366.00 W/m2
07:34 11.8 °C 5.9 °C 1022.9 hPa NW 22.5 km/h 32.2 km/h 67 % 0 mm 367.00 W/m2
07:39 11.9 °C 5.9 °C 1022.9 hPa WNW 16.1 km/h 25.7 km/h 67 % 0 mm 387.00 W/m2
07:44 12.2 °C 6.1 °C 1022.6 hPa NW 16.1 km/h 29 km/h 66 % 0 mm 394.00 W/m2
07:49 12.4 °C 6 °C 1022.9 hPa NW 19.3 km/h 32.2 km/h 65 % 0 mm 410.00 W/m2
07:54 12.6 °C 6.2 °C 1022.9 hPa NW 12.9 km/h 22.5 km/h 65 % 0 mm 424.00 W/m2
07:59 12.7 °C 5.6 °C 1023.2 hPa NW 17.7 km/h 37 km/h 62 % 0 mm 438.00 W/m2
08:04 12.7 °C 5.4 °C 1023.2 hPa NW 19.3 km/h 33.8 km/h 61 % 0 mm 455.00 W/m2
08:09 12.8 °C 5.4 °C 1023.2 hPa NW 16.1 km/h 24.1 km/h 61 % 0 mm 455.00 W/m2
08:14 12.9 °C 5.6 °C 1023.2 hPa WNW 17.7 km/h 29 km/h 61 % 0 mm 492.00 W/m2
08:19 13.2 °C 5.6 °C 1023.6 hPa NW 16.1 km/h 32.2 km/h 60 % 0 mm 489.00 W/m2
08:24 13.3 °C 5.4 °C 1023.6 hPa NW 17.7 km/h 29 km/h 59 % 0 mm 631.00 W/m2
08:29 13.3 °C 5.4 °C 1023.6 hPa NW 14.5 km/h 22.5 km/h 59 % 0 mm 188.00 W/m2
08:34 13.2 °C 5.3 °C 1023.6 hPa NW 14.5 km/h 24.1 km/h 59 % 0 mm 680.00 W/m2
08:40 13.5 °C 5.6 °C 1023.9 hPa NW 17.7 km/h 35.4 km/h 59 % 0 mm 675.00 W/m2
08:44 13.7 °C 5.6 °C 1023.6 hPa NW 17.7 km/h 25.7 km/h 58 % 0 mm 374.00 W/m2
08:49 13.9 °C 5.5 °C 1023.6 hPa NW 16.1 km/h 29 km/h 57 % 0 mm 615.00 W/m2
08:54 13.8 °C 4.9 °C 1023.6 hPa NW 19.3 km/h 33.8 km/h 55 % 0 mm 599.00 W/m2
08:59 14 °C 5.3 °C 1023.9 hPa NNW 14.5 km/h 24.1 km/h 56 % 0 mm 617.00 W/m2
09:04 14.2 °C 5.6 °C 1023.9 hPa NW 19.3 km/h 33.8 km/h 56 % 0 mm 691.00 W/m2
09:09 14.1 °C 5.2 °C 1024.3 hPa NNW 17.7 km/h 29 km/h 55 % 0 mm 223.00 W/m2
09:14 13.9 °C 5 °C 1023.9 hPa NW 14.5 km/h 29 km/h 55 % 0 mm 434.00 W/m2
09:19 14.2 °C 5.6 °C 1024.3 hPa NNW 11.3 km/h 19.3 km/h 56 % 0 mm 784.00 W/m2
09:24 14.4 °C 5.4 °C 1024.3 hPa WNW 14.5 km/h 22.5 km/h 55 % 0 mm 200.00 W/m2
09:29 14.3 °C 5.4 °C 1024.3 hPa NW 14.5 km/h 25.7 km/h 55 % 0 mm 158.00 W/m2
09:34 14 °C 5.1 °C 1024.3 hPa NW 11.3 km/h 22.5 km/h 55 % 0 mm 183.00 W/m2
09:39 14 °C 5.3 °C 1024.3 hPa NW 17.7 km/h 30.6 km/h 56 % 0 mm 788.00 W/m2
09:44 14.3 °C 5.6 °C 1024.3 hPa NW 12.9 km/h 24.1 km/h 56 % 0 mm 870.00 W/m2
09:49 14.2 °C 5.3 °C 1024.3 hPa NW 16.1 km/h 29 km/h 55 % 0 mm 204.00 W/m2
09:54 14 °C 5.3 °C 1024.6 hPa NW 16.1 km/h 24.1 km/h 56 % 0 mm 149.00 W/m2
09:59 13.8 °C 5.4 °C 1024.3 hPa NW 12.9 km/h 24.1 km/h 57 % 0 mm 821.00 W/m2
10:04 14.3 °C 5.4 °C 1024.3 hPa NNW 17.7 km/h 29 km/h 55 % 0 mm 888.00 W/m2
10:09 14.7 °C 5.5 °C 1024.3 hPa NNW 22.5 km/h 32.2 km/h 54 % 0 mm 837.00 W/m2
10:14 14.7 °C 5.2 °C 1024.6 hPa NW 16.1 km/h 30.6 km/h 53 % 0 mm 120.00 W/m2
10:19 14.6 °C 5.4 °C 1024.6 hPa NW 16.1 km/h 29 km/h 54 % 0 mm 891.00 W/m2
10:24 14.9 °C 5.4 °C 1024.6 hPa NNW 16.1 km/h 25.7 km/h 53 % 0 mm 912.00 W/m2
10:29 15.5 °C 5.7 °C 1024.6 hPa NNW 17.7 km/h 30.6 km/h 52 % 0 mm 865.00 W/m2
10:34 15.7 °C 5.9 °C 1024.6 hPa NW 16.1 km/h 29 km/h 52 % 0 mm 870.00 W/m2
10:39 15.8 °C 5.4 °C 1024.6 hPa NNW 14.5 km/h 29 km/h 50 % 0 mm 891.00 W/m2
10:44 16 °C 5.8 °C 1024.6 hPa NW 12.9 km/h 22.5 km/h 51 % 0 mm 947.00 W/m2
10:49 16.3 °C 5.3 °C 1024.9 hPa NNW 22.5 km/h 37 km/h 48 % 0 mm 939.00 W/m2
10:54 16.2 °C 5.4 °C 1024.9 hPa NNW 14.5 km/h 29 km/h 49 % 0 mm 965.00 W/m2
10:59 16.1 °C 5.7 °C 1024.9 hPa NW 19.3 km/h 30.6 km/h 50 % 0 mm 320.00 W/m2
11:04 15.9 °C 5.5 °C 1024.9 hPa NW 14.5 km/h 22.5 km/h 50 % 0 mm 325.00 W/m2
11:09 15.9 °C 5.5 °C 1024.9 hPa NW 11.3 km/h 24.1 km/h 50 % 0 mm 990.00 W/m2
11:14 16.3 °C 6.1 °C 1024.9 hPa NW 16.1 km/h 30.6 km/h 51 % 0 mm 1065.00 W/m2
11:19 16.8 °C 5.7 °C 1024.9 hPa NW 14.5 km/h 25.7 km/h 48 % 0 mm 958.00 W/m2
11:24 17.2 °C 5.8 °C 1024.9 hPa NW 17.7 km/h 30.6 km/h 47 % 0 mm 1111.00 W/m2
11:29 17.1 °C 5.7 °C 1024.9 hPa NW 17.7 km/h 25.7 km/h 47 % 0 mm 302.00 W/m2
11:34 16.8 °C 5.4 °C 1025.3 hPa NW 16.1 km/h 24.1 km/h 47 % 0 mm 1116.00 W/m2
11:39 17 °C 5.3 °C 1025.3 hPa WNW 16.1 km/h 29 km/h 46 % 0 mm 1116.00 W/m2
11:44 17 °C 5.3 °C 1025.3 hPa NW 12.9 km/h 20.9 km/h 46 % 0 mm 1046.00 W/m2
11:49 17.2 °C 4.8 °C 1025.3 hPa WNW 20.9 km/h 33.8 km/h 44 % 0 mm 213.00 W/m2
11:54 17.1 °C 5.1 °C 1025.3 hPa WNW 16.1 km/h 24.1 km/h 45 % 0 mm 1014.00 W/m2
11:59 17.4 °C 5.7 °C 1025.3 hPa NW 12.9 km/h 20.9 km/h 46 % 0 mm 1063.00 W/m2
12:04 17.7 °C 5.3 °C 1025.3 hPa NNW 12.9 km/h 24.1 km/h 44 % 0 mm 1088.00 W/m2
12:09 17.6 °C 5.5 °C 1025.6 hPa WNW 19.3 km/h 37 km/h 45 % 0 mm 1144.00 W/m2
12:15 17.7 °C 5.3 °C 1025.6 hPa WNW 16.1 km/h 22.5 km/h 44 % 0 mm 236.00 W/m2
12:19 17.5 °C 5.1 °C 1025.6 hPa NW 16.1 km/h 30.6 km/h 44 % 0 mm 1092.00 W/m2
12:24 17.4 °C 5 °C 1025.6 hPa NW 17.7 km/h 24.1 km/h 44 % 0 mm 221.00 W/m2
12:29 17.5 °C 5.1 °C 1025.6 hPa NW 16.1 km/h 24.1 km/h 44 % 0 mm 1104.00 W/m2
12:34 17.4 °C 5.3 °C 1025.6 hPa NW 16.1 km/h 32.2 km/h 45 % 0 mm 1016.00 W/m2
12:39 17.6 °C 5.2 °C 1025.6 hPa NW 16.1 km/h 29 km/h 44 % 0 mm 1086.00 W/m2
12:44 17.9 °C 5.1 °C 1025.6 hPa NNW 11.3 km/h 20.9 km/h 43 % 0 mm 216.00 W/m2
12:49 18 °C 5.2 °C 1025.6 hPa NW 16.1 km/h 22.5 km/h 43 % 0 mm 1102.00 W/m2
12:54 18.3 °C 5.8 °C 1025.6 hPa NW 12.9 km/h 24.1 km/h 44 % 0 mm 1060.00 W/m2
12:59 18.4 °C 5.9 °C 1025.6 hPa NNW 12.9 km/h 20.9 km/h 44 % 0 mm 1148.00 W/m2
13:04 18.7 °C 5.5 °C 1025.6 hPa NW 12.9 km/h 19.3 km/h 42 % 0 mm 367.00 W/m2
13:09 18.7 °C 5.8 °C 1025.6 hPa NNW 12.9 km/h 22.5 km/h 43 % 0 mm 1143.00 W/m2
13:14 18.8 °C 5.6 °C 1025.6 hPa NW 19.3 km/h 30.6 km/h 42 % 0 mm 1030.00 W/m2
13:19 18.7 °C 5.2 °C 1025.6 hPa NNW 17.7 km/h 25.7 km/h 41 % 0 mm 988.00 W/m2
13:24 18.4 °C 5.6 °C 1025.6 hPa NW 14.5 km/h 25.7 km/h 43 % 0 mm 1063.00 W/m2
13:29 18.7 °C 4.8 °C 1025.6 hPa WNW 20.9 km/h 35.4 km/h 40 % 0 mm 274.00 W/m2
13:34 18.7 °C 4.8 °C 1025.6 hPa NW 16.1 km/h 30.6 km/h 40 % 0 mm 1223.00 W/m2
13:39 18.6 °C 5.1 °C 1025.6 hPa NW 16.1 km/h 30.6 km/h 41 % 0 mm 1002.00 W/m2
13:44 18.7 °C 4.8 °C 1025.6 hPa WNW 20.9 km/h 35.4 km/h 40 % 0 mm 1060.00 W/m2
13:49 18.8 °C 4.6 °C 1025.6 hPa NW 16.1 km/h 32.2 km/h 39 % 0 mm 1137.00 W/m2
13:54 18.9 °C 5.3 °C 1025.6 hPa NW 12.9 km/h 22.5 km/h 41 % 0 mm 1150.00 W/m2
13:59 18.9 °C 5 °C 1025.6 hPa WNW 19.3 km/h 30.6 km/h 40 % 0 mm 1079.00 W/m2
14:04 18.9 °C 5.3 °C 1025.6 hPa NW 16.1 km/h 29 km/h 41 % 0 mm 1079.00 W/m2
14:09 19.1 °C 4.4 °C 1025.6 hPa NW 16.1 km/h 25.7 km/h 38 % 0 mm 1037.00 W/m2
14:14 19.3 °C 5 °C 1025.6 hPa WNW 17.7 km/h 33.8 km/h 39 % 0 mm 1069.00 W/m2
14:19 19.4 °C 5.1 °C 1026 hPa NNW 16.1 km/h 33.8 km/h 39 % 0 mm 1060.00 W/m2
14:24 19.6 °C 5.6 °C 1026 hPa NW 14.5 km/h 22.5 km/h 40 % 0 mm 1076.00 W/m2
14:29 19.7 °C 5.7 °C 1026 hPa WNW 20.9 km/h 30.6 km/h 40 % 0 mm 1107.00 W/m2
14:34 19.7 °C 5 °C 1026 hPa WNW 14.5 km/h 30.6 km/h 38 % 0 mm 1097.00 W/m2
14:39 19.8 °C 5.1 °C 1026 hPa WNW 16.1 km/h 24.1 km/h 38 % 0 mm 276.00 W/m2
14:44 19.4 °C 5.1 °C 1026 hPa WNW 22.5 km/h 33.8 km/h 39 % 0 mm 271.00 W/m2
14:49 19.1 °C 5.2 °C 1026 hPa NW 17.7 km/h 25.7 km/h 40 % 0 mm 1027.00 W/m2
14:54 19.2 °C 5.3 °C 1026 hPa West 16.1 km/h 25.7 km/h 40 % 0 mm 1037.00 W/m2
14:59 19.3 °C 5 °C 1026 hPa WNW 19.3 km/h 33.8 km/h 39 % 0 mm 979.00 W/m2
15:04 19.4 °C 5.8 °C 1026 hPa NW 14.5 km/h 20.9 km/h 41 % 0 mm 216.00 W/m2
15:09 19.3 °C 5.3 °C 1026 hPa WNW 14.5 km/h 24.1 km/h 40 % 0 mm 246.00 W/m2
15:14 19.3 °C 5.3 °C 1026 hPa WNW 19.3 km/h 25.7 km/h 40 % 0 mm 965.00 W/m2
15:19 19.4 °C 5.4 °C 1026 hPa WNW 16.1 km/h 24.1 km/h 40 % 0 mm 151.00 W/m2
15:24 19.2 °C 5.6 °C 1026 hPa NW 14.5 km/h 20.9 km/h 41 % 0 mm 946.00 W/m2
15:29 19 °C 6.1 °C 1026.3 hPa NW 11.3 km/h 19.3 km/h 43 % 0 mm 221.00 W/m2
15:34 18.8 °C 6.6 °C 1026.3 hPa WNW 14.5 km/h 20.9 km/h 45 % 0 mm 211.00 W/m2
15:39 18.6 °C 6.1 °C 1026.3 hPa NW 17.7 km/h 29 km/h 44 % 0 mm 912.00 W/m2
15:45 18.4 °C 5.6 °C 1026.3 hPa NW 17.7 km/h 24.1 km/h 43 % 0 mm 889.00 W/m2
15:49 18.4 °C 5.6 °C 1026.3 hPa WNW 16.1 km/h 25.7 km/h 43 % 0 mm 211.00 W/m2
15:54 18.4 °C 6.2 °C 1026.3 hPa NW 16.1 km/h 30.6 km/h 45 % 0 mm 294.00 W/m2
15:59 18.5 °C 5.7 °C 1026.3 hPa WNW 17.7 km/h 29 km/h 43 % 0 mm 311.00 W/m2
16:04 18.4 °C 6.2 °C 1026.3 hPa NW 17.7 km/h 30.6 km/h 45 % 0 mm 248.00 W/m2
16:09 18.3 °C 6.5 °C 1026.3 hPa WNW 20.9 km/h 29 km/h 46 % 0 mm 881.00 W/m2
16:14 18.7 °C 7.2 °C 1026.3 hPa NW 16.1 km/h 30.6 km/h 47 % 0 mm 810.00 W/m2
16:19 18.9 °C 7.3 °C 1026.6 hPa WNW 17.7 km/h 32.2 km/h 47 % 0 mm 759.00 W/m2
16:24 19 °C 7.1 °C 1026.6 hPa West 24.1 km/h 35.4 km/h 46 % 0 mm 812.00 W/m2
16:29 19.1 °C 7.2 °C 1026.6 hPa NW 16.1 km/h 29 km/h 46 % 0 mm 780.00 W/m2
16:34 19.2 °C 6.9 °C 1026.6 hPa WNW 20.9 km/h 32.2 km/h 45 % 0 mm 744.00 W/m2
16:39 19.1 °C 7.2 °C 1026.6 hPa WNW 17.7 km/h 25.7 km/h 46 % 0 mm 722.00 W/m2
16:44 18.7 °C 6.8 °C 1026.6 hPa West 17.7 km/h 25.7 km/h 46 % 0 mm 272.00 W/m2
16:49 18.5 °C 6.9 °C 1026.6 hPa WNW 14.5 km/h 25.7 km/h 47 % 0 mm 128.00 W/m2
16:54 18.4 °C 6.9 °C 1026.6 hPa NW 16.1 km/h 25.7 km/h 47 % 0 mm 172.00 W/m2
16:59 18.2 °C 7.3 °C 1026.6 hPa WNW 16.1 km/h 24.1 km/h 49 % 0 mm 211.00 W/m2
17:04 18.2 °C 7.3 °C 1026.6 hPa WNW 19.3 km/h 30.6 km/h 49 % 0 mm 283.00 W/m2
17:09 18.2 °C 7.6 °C 1026.6 hPa WNW 19.3 km/h 30.6 km/h 50 % 0 mm 195.00 W/m2
17:14 18 °C 7.1 °C 1027 hPa WNW 22.5 km/h 33.8 km/h 49 % 0 mm 172.00 W/m2
17:19 17.8 °C 7.5 °C 1027 hPa WNW 19.3 km/h 29 km/h 51 % 0 mm 705.00 W/m2
17:25 18.2 °C 7.9 °C 1027 hPa WNW 17.7 km/h 29 km/h 51 % 0 mm 640.00 W/m2
17:29 18.1 °C 7.8 °C 1027 hPa West 17.7 km/h 25.7 km/h 51 % 0 mm 636.00 W/m2
17:34 18.2 °C 7.9 °C 1027 hPa West 17.7 km/h 35.4 km/h 51 % 0 mm 570.00 W/m2
17:39 18.1 °C 7.8 °C 1027 hPa WNW 20.9 km/h 33.8 km/h 51 % 0 mm 130.00 W/m2
17:44 17.8 °C 7.8 °C 1027 hPa WNW 16.1 km/h 24.1 km/h 52 % 0 mm 135.00 W/m2
17:49 17.4 °C 7.4 °C 1027 hPa West 17.7 km/h 33.8 km/h 52 % 0 mm 404.00 W/m2
17:54 17.3 °C 7.6 °C 1027 hPa WNW 20.9 km/h 30.6 km/h 53 % 0 mm 497.00 W/m2
17:59 17.5 °C 7.8 °C 1027.3 hPa West 20.9 km/h 32.2 km/h 53 % 0 mm 436.00 W/m2
18:04 17.6 °C 7.6 °C 1027.3 hPa West 19.3 km/h 35.4 km/h 52 % 0 mm 439.00 W/m2
18:09 17.7 °C 8 °C 1027.3 hPa WNW 14.5 km/h 24.1 km/h 53 % 0 mm 427.00 W/m2
18:14 17.8 °C 7.5 °C 1027.3 hPa West 20.9 km/h 30.6 km/h 51 % 0 mm 418.00 W/m2
18:19 17.9 °C 7.3 °C 1027.3 hPa WNW 16.1 km/h 29 km/h 50 % 0 mm 306.00 W/m2
18:24 17.8 °C 7.5 °C 1027.3 hPa WNW 14.5 km/h 24.1 km/h 51 % 0 mm 79.00 W/m2
18:29 17.4 °C 7.4 °C 1027.3 hPa WNW 17.7 km/h 32.2 km/h 52 % 0 mm 88.00 W/m2
18:34 17.3 °C 7.3 °C 1027.3 hPa WNW 16.1 km/h 24.1 km/h 52 % 0 mm 346.00 W/m2
18:39 17.3 °C 7.6 °C 1027.3 hPa West 17.7 km/h 32.2 km/h 53 % 0 mm 332.00 W/m2
18:44 17.4 °C 7.7 °C 1027.3 hPa West 19.3 km/h 33.8 km/h 53 % 0 mm 322.00 W/m2
18:49 17.3 °C 7.6 °C 1027.3 hPa WNW 16.1 km/h 24.1 km/h 53 % 0 mm 302.00 W/m2
18:54 17.4 °C 7.7 °C 1027.3 hPa West 16.1 km/h 29 km/h 53 % 0 mm 292.00 W/m2
18:59 17.2 °C 7.8 °C 1027.7 hPa West 17.7 km/h 33.8 km/h 54 % 0 mm 288.00 W/m2
Delerius-Weather
Compliments of Weather Underground - 2 mb

Data updates at regular intervals.